ADDS METAR Data INFO
IDs: Format: Raw Decoded Include TAF

Data at: 2205 UTC 24 Feb 2018

KBCB 242155Z AUTO 21004KT 10SM RA SCT042 BKN050 OVC090 20/15 A3008 RMK AO2 T02010147
KBCB 242135Z AUTO 19005KT 10SM SCT047 SCT060 BKN075 20/15 A3008 RMK AO2 T02030146
KBCB 242115Z AUTO 16006KT 10SM SCT044 BKN050 OVC080 20/15 A3007 RMK AO2 T02020145
KBCB 242055Z AUTO 19006KT 10SM SCT033 BKN050 OVC080 21/15 A3007 RMK AO2 T02050146
KBCB 242035Z AUTO 18005KT 10SM BKN028 BKN038 OVC048 21/15 A3008 RMK AO2 T02080148
KBCB 242015Z AUTO 00000KT 10SM BKN030 BKN036 OVC090 21/15 A3008 RMK AO2 T02070153
KBCB 241955Z AUTO 33003KT 10SM SCT030 BKN100 21/16 A3008 RMK AO2 T02140155
KBCB 241935Z AUTO 32003KT 10SM SCT075 BKN100 20/15 A3009 RMK AO2 T02020154
KBCB 241915Z AUTO 29004KT 10SM SCT075 BKN110 21/15 A3010 RMK AO2 T02050151
KBCB 241855Z AUTO 32007KT 10SM BKN110 20/16 A3011 RMK AO2 T02010158
KBCB 241835Z AUTO 32005KT 10SM SCT040 SCT085 SCT110 19/15 A3012 RMK AO2 T01920154
KBCB 241815Z AUTO 00000KT 10SM SCT040 BKN085 BKN100 19/15 A3014 RMK AO2 T01860152
KBCB 241755Z AUTO 00000KT 10SM SCT044 SCT049 SCT085 18/15 A3015 RMK AO2 60005 T01780153 10178 20117
KBCB 241735Z AUTO 33003KT 10SM BKN046 BKN050 OVC065 16/15 A3017 RMK AO2 T01640148
KBCB 241715Z AUTO 00000KT 10SM BKN050 OVC060 15/14 A3018 RMK AO2 T01540142
KBCB 241655Z AUTO 34003KT 10SM -RA BKN050 OVC060 15/14 A3020 RMK AO2 P0001 T01500143
KBCB 241635Z AUTO 00000KT 10SM -RA BKN060 OVC070 15/14 A3020 RMK AO2 P0001 T01510144
KBCB 241615Z AUTO 00000KT 7SM -RA SCT050 BKN070 OVC085 15/14 A3021 RMK AO2 P0001 T01530143
KBCB 241555Z AUTO 25003KT 10SM -RA BKN048 BKN070 OVC095 15/14 A3021 RMK AO2 P0003 T01520142
KBCB 241535Z AUTO 00000KT 10SM RA SCT060 SCT070 OVC095 15/14 A3021 RMK AO2 P0003 T01520140
KBCB 241515Z AUTO 00000KT 7SM RA SCT040 BKN060 OVC095 15/14 A3022 RMK AO2 P0002 T01460136
KBCB 241455Z AUTO 28003KT 7SM RA SCT047 SCT060 OVC095 15/14 A3023 RMK AO2 T01510135
KBCB 241435Z AUTO 00000KT 10SM -RA SCT050 BKN095 OVC120 16/14 A3022 RMK AO2 T01560135
KBCB 241415Z AUTO 26003KT 10SM SCT050 OVC120 16/13 A3022 RMK AO2 T01580134
KBCB 241355Z AUTO 26003KT 7SM BKN120 15/14 A3021 RMK AO2 T01450135
KBCB 241335Z AUTO 00000KT 7SM SCT120 14/13 A3022 RMK AO2 T01380133
KBCB 241315Z AUTO 00000KT 7SM OVC120 13/13 A3022 RMK AO2 T01310130
KBCB 241255Z AUTO 00000KT 5SM BR BKN120 13/13 A3022 RMK AO2 T01270127
KBCB 241235Z AUTO 00000KT 2 1/2SM BR SCT120 12/12 A3022 RMK AO2 VIS 1 1/2V4 T01210121
KBCB 241215Z AUTO 00000KT 4SM BR BKN120 12/12 A3021 RMK AO2 T01240124
KBCB 241155Z AUTO 00000KT 2 1/2SM BR SCT120 12/12 A3022 RMK AO2 T01190119 10122 20098
KBCB 241135Z AUTO 00000KT 2 1/2SM BR SCT120 12/12 A3021 RMK AO2 T01150115
KBCB 241115Z AUTO 00000KT 5SM BR CLR 12/12 A3021 RMK AO2 T01210121
KBCB 241055Z AUTO 00000KT 3SM BR CLR 12/12 A3021 RMK AO2 T01170117
KBCB 241035Z AUTO 00000KT 3SM BR CLR 11/11 A3021 RMK AO2 T01120112
KBCB 241015Z AUTO 00000KT 4SM BR CLR 11/11 A3021 RMK AO2 T01130112
KBCB 240955Z AUTO 00000KT 4SM BR SCT075 11/11 A3022 RMK AO2 T01120112
KBCB 240935Z AUTO 00000KT 3SM BR SCT075 12/11 A3023 RMK AO2 T01150114
KBCB 240915Z AUTO 00000KT 5SM BR SCT060 SCT075 12/11 A3023 RMK AO2 T01160114
KBCB 240855Z AUTO 00000KT 7SM SCT060 11/11 A3024 RMK AO2 T01100108
KBCB 240835Z AUTO 00000KT 7SM SCT065 SCT090 11/11 A3025 RMK AO2 T01120109
KBCB 240815Z AUTO 00000KT 7SM BKN065 BKN090 11/11 A3025 RMK AO2 T01100107
KBCB 240755Z AUTO 00000KT 3SM BR BKN065 BKN090 11/11 A3026 RMK AO2 T01060105
KBCB 240735Z AUTO 00000KT 7SM SCT070 SCT085 11/11 A3026 RMK AO2 T01100107
KBCB 240715Z AUTO 00000KT 7SM OVC070 11/10 A3027 RMK AO2 T01050104
KBCB 240655Z AUTO 00000KT 5SM BR BKN075 BKN090 10/10 A3028 RMK AO2 T01020100
KBCB 240635Z AUTO 00000KT 7SM SCT090 10/10 A3028 RMK AO2 T01040103
KBCB 240615Z AUTO 00000KT 5SM BR CLR 10/10 A3029 RMK AO2 T01040102
KBCB 240555Z AUTO 00000KT 7SM CLR 10/10 A3029 RMK AO2 T01010098 10119 20098
KBCB 240535Z AUTO 00000KT 7SM CLR 10/10 A3030 RMK AO2 T01010098
KBCB 240515Z AUTO 00000KT 7SM CLR 11/10 A3030 RMK AO2 T01080104
KBCB 240455Z AUTO 00000KT 10SM CLR 11/10 A3030 RMK AO2 T01080104 401910076
KBCB 240435Z AUTO 00000KT 10SM CLR 12/11 A3030 RMK AO2 T01160111
KBCB 240415Z AUTO 00000KT 10SM CLR 11/10 A3031 RMK AO2 T01100101
KBCB 240355Z AUTO 09004KT 10SM CLR 10/09 A3032 RMK AO2 T01040094
KBCB 240335Z AUTO 10003KT 10SM CLR 10/09 A3033 RMK AO2 T01020093
KBCB 240315Z AUTO 00000KT 10SM SCT075 11/09 A3033 RMK AO2 T01050092
KBCB 240255Z AUTO 00000KT 10SM OVC075 10/09 A3033 RMK AO2 T01000090
KBCB 240235Z AUTO 00000KT 10SM OVC075 10/09 A3034 RMK AO2 T01010090
KBCB 240215Z AUTO 00000KT 10SM BKN075 10/09 A3034 RMK AO2 T01020091
KBCB 240155Z AUTO 00000KT 10SM CLR 10/09 A3035 RMK AO2 T01020091
KBCB 240135Z AUTO 10004KT 10SM CLR 10/09 A3034 RMK AO2 T01000087
KBCB 240115Z AUTO 11004KT 10SM CLR 11/09 A3034 RMK AO2 T01080090
KBCB 240055Z AUTO 11006KT 10SM CLR 11/09 A3034 RMK AO2 T01100090
KBCB 240035Z AUTO 10005KT 10SM CLR 12/09 A3035 RMK AO2 T01150091
KBCB 240015Z AUTO 09005KT 10SM CLR 11/09 A3034 RMK AO2 T01140092
KBCB 232355Z AUTO 10007KT 10SM CLR 12/09 A3033 RMK AO2 T01210092 10191 20121
KBCB 232335Z AUTO 12006KT 10SM CLR 13/10 A3033 RMK AO2 T01300096
KBCB 232315Z AUTO 12010KT 10SM CLR 13/10 A3032 RMK AO2 T01340095
KBCB 232255Z AUTO 11008KT 10SM CLR 14/10 A3033 RMK AO2 T01410097
KBCB 232235Z AUTO 11007KT 10SM CLR 15/10 A3033 RMK AO2 T01500098
KBCB 232215Z AUTO 11008KT 10SM CLR 16/10 A3033 RMK AO2 T01560100
KBCB 232155Z AUTO 11008KT 10SM CLR 16/10 A3033 RMK AO2 T01620100
KBCB 232135Z AUTO 12007KT 10SM CLR 17/10 A3033 RMK AO2 T01690101
KBCB 232115Z AUTO 12006KT 10SM CLR 18/11 A3033 RMK AO2 T01810106
KBCB 232055Z AUTO 13006KT 10SM CLR 18/11 A3034 RMK AO2 T01800106
KBCB 232035Z AUTO 13005KT 10SM CLR 19/11 A3035 RMK AO2 T01850107
KBCB 232015Z AUTO 12005KT 10SM CLR 19/11 A3035 RMK AO2 T01890109
KBCB 231955Z AUTO 10005KT 10SM CLR 19/11 A3036 RMK AO2 T01870112
KBCB 231935Z AUTO 05003KT 10SM CLR 18/11 A3038 RMK AO2 T01800111
KBCB 231915Z AUTO 08003KT 10SM CLR 17/11 A3039 RMK AO2 T01690107
KBCB 231855Z AUTO 10004KT 10SM CLR 16/11 A3040 RMK AO2 T01600107
KBCB 231835Z AUTO 10004KT 10SM CLR 15/10 A3041 RMK AO2 T01510103
KBCB 231815Z AUTO 13006KT 10SM CLR 14/10 A3043 RMK AO2 T01430102
KBCB 231755Z AUTO 08004KT 10SM BKN008 13/10 A3044 RMK AO2 T01300099 10130 20076
KBCB 231735Z AUTO 06004KT 10SM OVC006 12/10 A3046 RMK AO2 T01190096
KBCB 231715Z AUTO 08005KT 10SM OVC006 11/09 A3047 RMK AO2 T01090094
KBCB 231655Z AUTO 05004KT 10SM OVC004 10/09 A3047 RMK AO2 T00990094
KBCB 231635Z AUTO 08003KT 4SM BR OVC004 09/09 A3048 RMK AO2 T00940091
KBCB 231615Z AUTO 07004KT 4SM BR OVC004 09/09 A3048 RMK AO2 T00910091
KBCB 231555Z AUTO 11003KT 1 3/4SM BR OVC002 08/08 A3048 RMK AO2 T00840084
KBCB 231535Z AUTO 12005KT 1SM BR OVC002 08/08 A3048 RMK AO2 T00800080
KBCB 231515Z AUTO 12005KT 1 1/4SM BR OVC002 08/08 A3049 RMK AO2 T00830083
KBCB 231455Z AUTO 12003KT 3/4SM BR OVC002 08/08 A3049 RMK AO2 T00800080
KBCB 231435Z AUTO 13004KT 1SM BR OVC002 08/08 A3050 RMK AO2 T00790079
KBCB 231415Z AUTO 12004KT 1SM BR OVC002 08/08 A3050 RMK AO2 T00770077
KBCB 231355Z AUTO 12006KT 1SM BR OVC002 08/08 A3050 RMK AO2 T00780078
KBCB 231335Z AUTO 12004KT 1 1/4SM BR OVC002 08/08 A3051 RMK AO2 T00820082
KBCB 231315Z AUTO 09003KT 1 1/4SM BR OVC002 09/09 A3051 RMK AO2 T00850085
KBCB 231255Z AUTO 10004KT 1SM BR OVC002 08/08 A3050 RMK AO2 T00830083
KBCB 231240Z AUTO 08004KT 1 1/4SM BR OVC002 09/09 A3050 RMK AO2 T00850085
KBCB 231215Z AUTO 10003KT 1SM BR OVC002 08/08 A3049 RMK AO2 T00820082
KBCB 231155Z AUTO 09006KT 1 1/4SM BR OVC002 09/09 A3049 RMK AO2 T00860086 10137 20083
KBCB 231135Z AUTO 11005KT 1/2SM FG OVC002 09/09 A3049 RMK AO2 T00850085
KBCB 231115Z AUTO 12005KT 1 1/4SM BR OVC002 09/09 A3049 RMK AO2 T00870086
KBCB 231055Z AUTO 12005KT 1 3/4SM BR OVC004 09/09 A3049 RMK AO2 T00900088
KBCB 231035Z AUTO 12004KT 4SM BR OVC004 09/09 A3049 RMK AO2 T00940092
KBCB 231015Z AUTO 12005KT 5SM BR OVC004 10/10 A3048 RMK AO2 T00980095